LSME - Emmen, Switzerland
Distance from HB9FEE: SW 14km
Updated: Tue, 24-Jan-2017 5:50am CET
Mist, Overcast
Mist, Overcast
 Wind from NNE
Wind: NNE 7 km/h
Temperature: -6°C
Wind Chill: -10°C
Dew Point: -6°C
Humidity: 100%
Barometer: 1024 hPa
Summary: Mist
Clouds: Overcast
Visibility: 6 miles
Cloud details: Overcast 152 m
2017/01/24 04:50 LSME 240450Z AUTO 02004KT 330V050 3500NDV BR OVC005 M06/M06 Q1024 RMK
LSZC - Buochs, Switzerland
Distance from HB9FEE: S 25km
Updated: Tue, 24-Jan-2017 5:50am CET
Mist, Overcast
Mist, Overcast
 Wind from varies
Wind: varies 9 km/h
Temperature: -5°C
Wind Chill: -9°C
Dew Point: -6°C
Humidity: 93%
Barometer: 1023 hPa
Summary: Mist
Clouds: Overcast
Visibility: 4 km
Cloud details: Overcast 183 m
2017/01/24 04:50 LSZC 240450Z AUTO VRB05KT 3900 BR OVC006 M05/M06 Q1023
 
LSMA - Alpnach, Switzerland
Distance from HB9FEE: SSW 29km
Updated: Tue, 24-Jan-2017 5:50am CET
Overcast
Overcast
 Wind from SSW
Wind: SSW 7 km/h
Temperature: -5°C
Wind Chill: -8°C
Dew Point: -7°C
Humidity: 86%
Barometer: 1023 hPa
Clouds: Overcast
Visibility: 10 miles
Cloud details: Overcast 244 m
2017/01/24 04:50 LSMA 240450Z AUTO 21004KT 6000NDV OVC008 M05/M07 Q1023 RMK
LSMD - Dubendorf, Switzerland
Distance from HB9FEE: NE 29km
Updated: Tue, 24-Jan-2017 5:50am CET
Mist, Overcast
Mist, Overcast
 Wind from calm
Wind: Calm
Temperature: -6°C
Dew Point: -8°C
Humidity: 86%
Barometer: 1023 hPa
Summary: Mist
Clouds: Overcast
Visibility: 8 miles
Cloud details: Overcast 244 m
2017/01/24 04:50 LSMD 240450Z AUTO 00000KT 4900NDV BR OVC008 M06/M08 Q1023 RMK
 
LSZH - Zurich-Kloten (a, Switzerland
Distance from HB9FEE: NNE 33km
Updated: Tue, 24-Jan-2017 5:50am CET
Mist, Overcast
Mist, Overcast
 Wind from WNW
Wind: WNW 6 km/h
Temperature: -6°C
Dew Point: -7°C
Humidity: 93%
Barometer: 1024 hPa
Summary: Mist
Clouds: Overcast
Visibility: 3 km
Cloud details: Few Clouds 183 m
Overcast 244 m
2017/01/24 04:50 LSZH 240450Z 30003KT 2800 BR FEW006 OVC008 M06/M07 Q1024 NOSIG
LSMM - Meiringen, Switzerland
Distance from HB9FEE: SSW 54km
Updated: Tue, 24-Jan-2017 4:50am CET
Overcast
Overcast
 Wind from E
Wind: E 4 km/h
Temperature: -6°C
Dew Point: -6°C
Humidity: 100%
Barometer: 1021 hPa
Clouds: Overcast
Visibility: 10 miles
Cloud details: Few Clouds 152 m
Overcast 305 m
2017/01/24 03:50 LSMM 240350Z AUTO 09002KT 6000NDV FEW005 OVC010 M06/M06 Q1021 RMK
 
LSZB - Bern/Belp, Switzerland
Distance from HB9FEE: WSW 76km
Updated: Tue, 24-Jan-2017 5:50am CET
Mist, Overcast
Mist, Overcast
 Wind from varies
Wind: varies 4 km/h
Temperature: -9°C
Dew Point: -10°C
Humidity: 93%
Barometer: 1023 hPa
Summary: Mist
Clouds: Overcast
Visibility: 3 km
Cloud details: Overcast 152 m
2017/01/24 04:50 LSZB 240450Z VRB02KT 3400 BR OVC005 M09/M10 Q1023 NOSIG
LSZG - Grenchen, Switzerland
Distance from HB9FEE: W 76km
Updated: Tue, 24-Jan-2017 5:50am CET
Mist, Overcast
Mist, Overcast
 Wind from NE
Wind: NE 13 km/h
Temperature: -7°C
Wind Chill: -13°C
Dew Point: -8°C
Humidity: 93%
Barometer: 1024 hPa
Summary: Mist
Clouds: Overcast
Visibility: 2 km
Cloud details: Overcast 122 m
2017/01/24 04:50 LSZG 240450Z AUTO 05007KT 2200 BR OVC004 M07/M08 Q1024
 
LFSB - Bale/Mulhouse, France
Distance from HB9FEE: NW 82km
Updated: Tue, 24-Jan-2017 5:30am CET
Mist, Overcast
Mist, Overcast
 Wind from varies
Wind: varies 4 km/h
Temperature: -6°C
Dew Point: -7°C
Humidity: 93%
Barometer: 1025 hPa
Summary: Mist
Clouds: Overcast
Visibility: 4 km
Cloud details: Overcast 152 m
2017/01/24 04:30 LFSB 240430Z VRB02KT 3500 BR OVC005 M06/M07 Q1025 NOSIG
LSZR - Rheineck/Altenrh, Switzerland
Distance from HB9FEE: ENE 92km
Updated: Tue, 24-Jan-2017 5:50am CET
Mist, Overcast
Mist, Overcast
 Wind from E
Wind: E 9 km/h
Temperature: -7°C
Wind Chill: -12°C
Dew Point: -7°C
Humidity: 100%
Barometer: 1023 hPa
Summary: Mist
Clouds: Overcast
Visibility: 4 km
Cloud details: Overcast 366 m
2017/01/24 04:50 LSZR 240450Z AUTO 09005KT 050V110 3600 BR OVC012 M07/M07 Q1023
 
LSZL - Locarno, Switzerland
Distance from HB9FEE: SSE 119km
Updated: Tue, 24-Jan-2017 5:50am CET
Clear
Clear
 Wind from calm
Wind: Calm
Temperature: -5°C
Dew Point: -8°C
Humidity: 80%
Barometer: 1019 hPa
Clouds: Clear
Visibility: 16 miles
2017/01/24 04:50 LSZL 240450Z AUTO 00000KT 9999NDV NCD M05/M08 Q1019 RMK
LSMP - Payerne (mil/Aut, Switzerland
Distance from HB9FEE: WSW 121km
Updated: Tue, 24-Jan-2017 5:50am CET
Mist, Overcast
Mist, Overcast
 Wind from E
Wind: E 7 km/h
Temperature: -7°C
Wind Chill: -11°C
Dew Point: -8°C
Humidity: 93%
Barometer: 1023 hPa
Summary: Mist
Clouds: Overcast
Visibility: 7 miles
Cloud details: Overcast 183 m
2017/01/24 04:50 LSMP 240450Z AUTO 08004KT 4100NDV BR OVC006 M07/M08 Q1023 RMK
 
LSGC - Les Eplatures, Switzerland
Distance from HB9FEE: W 123km
Updated: Tue, 24-Jan-2017 5:50am CET
Clear
Clear
 Wind from NE
Wind: NE 4 km/h
Temperature: -15°C
Dew Point: -17°C
Humidity: 85%
Barometer: 1019 hPa
Summary: Clear
Visibility: greater than 10 km
2017/01/24 04:50 LSGC 240450Z AUTO 04002KT CAVOK M15/M17 Q1019
LSZS - Samedan, Switzerland
Distance from HB9FEE: ESE 133km
Updated: Tue, 24-Jan-2017 5:50am CET
Clear
Clear
 Wind from SW
Wind: SW 4 km/h
Temperature: -22°C
Dew Point: -25°C
Humidity: 77%
Barometer: 1015 hPa
Clouds: Clear
Visibility: 10 km
2017/01/24 04:50 LSZS 240450Z AUTO 22002KT 9999 NCD M22/M25 Q1015
 
LSGS - Sion (mil/Civ/Au, Switzerland
Distance from HB9FEE: SW 137km
Updated: Mon, 23-Jan-2017 5:50pm CET
NOT Current
Partly Cloudy
Partly Cloudy
 Wind from SW
Wind: SW 6 km/h
Temperature: -2°C
Dew Point: -4°C
Humidity: 86%
Barometer: 1020 hPa
Clouds: Partly Cloudy
Visibility: 9 km
2017/01/23 16:50 LSGS 231650Z 23003KT 9000 NSC M02/M04 Q1020
LSZA - Lugano (pvt/Aut), Switzerland
Distance from HB9FEE: SSE 138km
Updated: Tue, 24-Jan-2017 5:50am CET
Clear
Clear
 Wind from N
Wind: N 6 km/h
Temperature: -5°C
Dew Point: -7°C
Humidity: 86%
Barometer: 1018 hPa
Summary: Clear
Visibility: greater than 10 km
2017/01/24 04:50 LSZA 240450Z AUTO 35003KT CAVOK M05/M07 Q1018